Moab, UT

1:45 PM MDT op 18 september 2014 (GMT -0600)
Canon Vista | Change Station
CLOSE
Current Station
Persoonlijk weerstation
Location: Moab, UT
Geometrische hoogte: 4183 ft
Nabije weerstations

Hoogte 4183 ft 38.56 °N, 109.53 °W | Updated 8 seconds ago

Helder
Helder
90.0 °F
Voelt als 88 °F
N
3.0
Wind Variabel Wind van WZW
Gusts 0.0 mijl/u

Vandaag
Hoog -- | Laag -- °F
--% Kans op neerslag
Gisteren
Hoog -- | Laag -- °F
Precip. -- inches
7:02 AM 7:21 PM
Afnemende halvemaan, 25% visible
Druk 29.95 inches
Zicht 10.0 mijlen
Wolken Helder
Warmteindex 88 °F
Dauwpunt 53 °F
Vochtigheid 29%
Neerslag 0.00 inches
Dikte sneeuw 1 in , 0 in , 1 in
UV 9 van de 12
Pollen 5.70 van de 12
Luchtkwaliteit Niet beschikbaar.
Flu Activity Niet beschikbaar.
METAR KCNY 181853Z AUTO 12007KT 10SM CLR 29/07 A2995

More Conditions Fewer Conditions

Druk 29.95 inches
Zicht 10.0 mijlen
Wolken Helder
Warmteindex 88 °F
Dauwpunt 53 °F
Vochtigheid 29%
Neerslag 0.00 inches
Dikte sneeuw 1 in , 0 in , 1 in
UV 9 van de 12
Pollen 5.70 van de 12
Luchtkwaliteit Niet beschikbaar.
Flu Activity Niet beschikbaar.
METAR KCNY 181853Z AUTO 12007KT 10SM CLR 29/07 A2995

More Conditions Fewer Conditions

10-Day Weather Forecast

Almanac

Astronomie

Sep. 18, 2014 Opkomst Ondergang
Werkelijke tijd 7:02 AM MDT 7:21 PM MDT
Burgerlijke schemering 6:35 AM MDT 7:47 PM MDT
Nautische schemering 6:04 AM MDT 8:18 PM MDT
Astronomische schemering 5:32 AM MDT 8:50 PM MDT
Maan 1:59 AM MDT 4:12 PM MDT
Golflengte van het zichtbare licht 13h 12m
Daglengte
12h 19m
Tomorrow will be 2m 29s shorter.
Afnemende halvemaan, 25% of the Moon is Illuminated
Vandaag
Afnemende halvemaan
sep 24
Nieuw
oktober 1
Eerste kwartier
oktober 8
Volle maan
oktober 15
Laatste kwartier

Extremen vandaag

State Highs State Lows

Community

WunderPhotos

Upload Photos

1,754,421 foto’s ge-upload!

WunderBlogs® & News

By Dr. Jeff Masters
Director of Meteorology, Weather Underground
By Kari Strenfel
Meteorologist, Weather Underground
By Christopher C. Burt
Weather Historian, Weather Underground
September 18, 2014
September 18, 2014
September 18, 2014

Nearby

Dikte sneeuw

Station Depth Geometrische hoogte
Clear Creek #2 1 in 8300 ft
Chepeta 0 in 10300 ft
Long Valley Jct 1 in 7360 ft
Thaynes Canyon 0 in 9200 ft
Currant Creek 0 in 8000 ft

Aardbevingen

Stad Distance Mag. Time & Date
No recent earthquake activity has been reported nearby.
Minimum magnitude displayed is 2.5.

Watertemperatuur langs de kust

Plaats Temperatuur
Geen meldingen van stations

Nabije weerstations